TNCCTNCA

Guest
Details From TNCC - Curacao Hato
To TNCA - Reina Beatrix Intl
Flight Number -
Tags Generated
Created
Modified
Stats Distance 65 nm / 119 km
Max Altitude 0 ft / 0 m
Waypoints 2
Social Downloads 0
Likes 0
Share VATSIM

Download

Looking for another format? Having issues loading an existing format? Contact us
Advertisement - Login to hide

Notes

Generated

Route

TNCC TNCA

ID Type Via Altitude Latitude Longitude Leg Dist Tot Dist Heading (true) Name
O TNCC APT - 0 ft / 0 m 12.19211˚ -68.97514˚ - 0 nm - -
O TNCA APT - 0 ft / 0 m 12.50439˚ -70.02747˚ 64 nm 64 nm 287° / 287° -

Altitude Profile

Advertisement - Login to hide

TNCC

Details ICAO TNCC (CUR)
Name Curacao Hato
Region Caribbean Netherlands, Aruba, Curaçao, Sint Maarten
Timezone Unknown (UTC+0.0)
Stats Elevation 29 ft / 9 m (AMSL)
Location 12.188853° -68.959803°
Runways 1
Magnetic Variation 11.372° W

METAR

TNCC 220100Z AUTO 09010KT 9999 SCT018 27/24 Q1013 NOSIG

Decode

TAF

TAF TNCC 211600Z 2118/2218 09015G25KT 9999 SCT022 TEMPO 2204/2212 10012KT BKN015

Decode

Departure Runways

ID Width Length Bearing (true) Bearing (mag) Surface Threshold Offset Overrun Length
11 197 ft / 60 m 11,197 ft / 3,413 m 102.24° 113.61° Asphalt 300 ft / 91 m 0 ft / 0 m
29 197 ft / 60 m 11,197 ft / 3,413 m 282.24° 293.61° Asphalt 300 ft / 91 m 200 ft / 61 m

TNCA

Details ICAO TNCA (AUA)
Name REINA BEATRIX INTL
Region Caribbean Netherlands, Aruba, Curaçao, Sint Maarten
Timezone America/Aruba (UTC-4.0)
Stats Elevation 60 ft / 18 m (AMSL)
Location 12.501389° -70.015220°
Runways 1
Magnetic Variation 10.813° W

METAR

TNCA 220100Z 08016KT 9999 FEW017 28/25 Q1012 A2989 NOSIG

Decode

TAF

TAF TNCA 211600Z 2118/2218 08020G30KT 9999 SCT022 TEMPO 2201/2212 10015KT BKN015

Decode

Destination Runways

ID Width Length Bearing (true) Bearing (mag) Surface Threshold Offset Overrun Length
11 148 ft / 45 m 8,998 ft / 2,743 m 104.08° 114.89° Asphalt 0 ft / 0 m 184 ft / 56 m
29 148 ft / 45 m 8,998 ft / 2,743 m 284.09° 294.90° Asphalt 0 ft / 0 m 184 ft / 56 m

Approach Navaids

Runway Type Ident Frequency Range Bearing (true) Bearing (mag) Slope Elevation
11 Localiser IBE 108.70 MHz 18 nm / 33 km 103.91° 114.72° - 58 ft / 18 m (AMSL)
11 Glidescope IBE 108.70 MHz 10 nm / 19 km 104.08° 114.90° 2.98° 10 ft / 3 m (AMSL)
11 DME IBE 108.70 MHz 18 nm / 33 km - - - 58 ft / 18 m (AMSL)

Popular Alternatives